Time;durP1;ratioP1;P1;durP2;ratioP2;P2;SDS_P1;SDS_P2;PMS_P1;PMS_P2;Temp;Humidity;BMP_temperature;BMP_pressure;BME280_temperature;BME280_humidity;BME280_pressure;Samples;Min_cycle;Max_cycle;Signal;HPM_P1;HPM_P2
2024/01/18 00:01:59;;;;;;;23.45;13.07;;;-2.10;99.90;;;;;;5013397;28;20030;-68
2024/01/18 00:04:25;;;;;;;21.33;12.23;;;-2.10;99.90;;;;;;5028850;28;20045;-68
2024/01/18 00:06:51;;;;;;;27.40;12.68;;;-2.10;99.90;;;;;;5038060;28;20044;-68
2024/01/18 00:09:17;;;;;;;24.50;11.20;;;-2.10;99.90;;;;;;5039650;28;20068;-68
2024/01/18 00:11:42;;;;;;;16.83;10.02;;;-2.10;99.90;;;;;;5021099;28;20136;-68
2024/01/18 00:14:08;;;;;;;17.50;9.32;;;-2.10;99.90;;;;;;5028899;28;20087;-68
2024/01/18 00:16:34;;;;;;;18.85;10.55;;;-2.20;99.90;;;;;;5040644;28;20118;-68
2024/01/18 00:19:00;;;;;;;20.77;10.35;;;-2.20;99.90;;;;;;5038098;28;20107;-69
2024/01/18 00:21:26;;;;;;;22.08;10.45;;;-2.30;99.90;;;;;;5027497;28;20485;-68
2024/01/18 00:23:51;;;;;;;21.27;10.10;;;-2.30;99.90;;;;;;5011853;28;20051;-69
2024/01/18 00:26:17;;;;;;;18.85;11.27;;;-2.30;99.90;;;;;;5025134;28;20409;-68
2024/01/18 00:28:42;;;;;;;19.90;11.13;;;-2.30;99.90;;;;;;5015179;28;20048;-68
2024/01/18 00:31:08;;;;;;;19.88;11.27;;;-2.30;99.90;;;;;;5040618;28;20136;-68
2024/01/18 00:33:34;;;;;;;19.52;11.30;;;-2.30;99.90;;;;;;5035278;28;20132;-68
2024/01/18 00:35:59;;;;;;;23.20;11.80;;;-2.30;99.90;;;;;;5019254;28;20035;-68
2024/01/18 00:38:25;;;;;;;21.13;12.05;;;-2.20;99.90;;;;;;5016789;28;20052;-68
2024/01/18 00:40:50;;;;;;;19.73;11.70;;;-2.30;99.90;;;;;;5033473;28;20042;-68
2024/01/18 00:43:16;;;;;;;20.67;10.23;;;-2.40;99.90;;;;;;5034269;28;20424;-68
2024/01/18 00:45:41;;;;;;;17.60;11.35;;;-2.40;99.90;;;;;;5014311;28;20033;-69
2024/01/18 00:48:07;;;;;;;19.02;10.82;;;-2.40;99.90;;;;;;5037732;28;20311;-68
2024/01/18 00:50:33;;;;;;;21.02;10.68;;;-2.40;99.90;;;;;;5032686;28;20033;-69
2024/01/18 00:52:58;;;;;;;19.23;10.25;;;-2.40;99.90;;;;;;5032288;28;20043;-68
2024/01/18 00:55:24;;;;;;;18.92;10.23;;;-2.40;99.90;;;;;;5046423;28;20546;-69
2024/01/18 00:57:51;;;;;;;29.42;10.02;;;-2.40;99.90;;;;;;5032781;28;20052;-69
2024/01/18 01:00:17;;;;;;;20.40;10.50;;;-2.50;99.90;;;;;;5030472;28;20096;-69
2024/01/18 01:02:42;;;;;;;20.67;9.80;;;-2.60;99.90;;;;;;5029744;28;20393;-69
2024/01/18 01:05:08;;;;;;;17.67;9.98;;;-2.50;99.90;;;;;;5033138;28;20116;-69
2024/01/18 01:07:34;;;;;;;17.17;9.35;;;-2.60;99.90;;;;;;5021806;28;20136;-69
2024/01/18 01:09:59;;;;;;;18.23;9.55;;;-2.60;99.90;;;;;;5028905;28;20038;-69
2024/01/18 01:12:25;;;;;;;18.85;10.45;;;-2.50;99.90;;;;;;5033161;28;20040;-69
2024/01/18 01:14:50;;;;;;;18.00;9.30;;;-2.60;99.90;;;;;;5028878;28;20084;-69
2024/01/18 01:17:16;;;;;;;23.02;9.43;;;-2.70;99.90;;;;;;5024491;28;20053;-69
2024/01/18 01:19:42;;;;;;;17.02;9.40;;;-2.70;99.90;;;;;;5015363;28;20033;-69
2024/01/18 01:22:07;;;;;;;18.95;8.77;;;-2.80;99.90;;;;;;5041408;28;20071;-69
2024/01/18 01:24:38;;;;;;;16.65;9.63;;;-2.80;99.90;;;;;;5027966;28;20500;-70
2024/01/18 01:27:05;;;;;;;14.65;9.07;;;-2.80;99.90;;;;;;5022456;28;20040;-70
2024/01/18 01:29:30;;;;;;;13.13;8.27;;;-2.80;99.90;;;;;;5040633;28;20075;-70
2024/01/18 01:31:56;;;;;;;20.92;8.63;;;-2.70;99.90;;;;;;5038971;28;20088;-70
2024/01/18 01:34:21;;;;;;;15.27;7.90;;;-2.70;99.90;;;;;;5020906;28;20038;-70
2024/01/18 01:36:47;;;;;;;14.23;6.57;;;-2.70;99.90;;;;;;5035452;28;20449;-70
2024/01/18 01:39:13;;;;;;;11.75;6.97;;;-2.80;99.90;;;;;;5038217;28;20044;-70
2024/01/18 01:41:38;;;;;;;13.43;7.35;;;-2.70;99.90;;;;;;5035632;28;20040;-69
2024/01/18 01:44:05;;;;;;;15.52;7.50;;;-2.80;99.90;;;;;;5024380;28;20135;-70
2024/01/18 01:46:30;;;;;;;13.50;7.53;;;-2.80;99.90;;;;;;5031317;28;20044;-69
2024/01/18 01:49:01;;;;;;;14.32;7.45;;;-2.80;99.90;;;;;;5035801;28;20095;-70
2024/01/18 01:51:34;;;;;;;11.30;7.10;;;-2.80;99.90;;;;;;5035358;28;20544;-70
2024/01/18 01:54:03;;;;;;;17.10;8.65;;;-2.80;99.90;;;;;;5036739;28;20141;-70
2024/01/18 01:56:29;;;;;;;15.38;8.68;;;-2.60;99.90;;;;;;5043171;28;20033;-70
2024/01/18 01:58:55;;;;;;;17.70;8.70;;;-2.60;99.90;;;;;;5031850;28;20114;-70
2024/01/18 02:01:20;;;;;;;15.95;8.75;;;-2.60;99.90;;;;;;5035124;28;20048;-70
2024/01/18 02:03:46;;;;;;;16.33;8.80;;;-2.60;99.90;;;;;;5037726;28;20082;-70
2024/01/18 02:06:15;;;;;;;15.00;8.25;;;-2.60;99.90;;;;;;5041479;28;20064;-70
2024/01/18 02:08:40;;;;;;;17.88;8.80;;;-2.70;99.90;;;;;;5037453;28;20045;-70
2024/01/18 02:11:06;;;;;;;15.63;8.73;;;-2.70;99.90;;;;;;5046125;28;20404;-70
2024/01/18 02:13:32;;;;;;;16.27;8.63;;;-2.70;99.90;;;;;;5023125;28;20045;-70
2024/01/18 02:15:58;;;;;;;14.57;8.45;;;-2.70;99.90;;;;;;5030857;28;20033;-70
2024/01/18 02:18:23;;;;;;;16.75;8.43;;;-2.70;99.90;;;;;;5033964;28;20132;-70
2024/01/18 02:20:49;;;;;;;14.98;7.50;;;-2.70;99.90;;;;;;5031119;28;20126;-70
2024/01/18 02:23:16;;;;;;;16.00;7.30;;;-2.70;99.90;;;;;;5022323;28;20041;-70
2024/01/18 02:25:42;;;;;;;16.67;7.03;;;-2.60;99.90;;;;;;5012121;28;20037;-70
2024/01/18 02:28:08;;;;;;;11.60;6.35;;;-2.70;99.90;;;;;;5035103;28;20067;-70
2024/01/18 02:30:33;;;;;;;15.82;7.07;;;-2.70;99.90;;;;;;5033240;28;20054;-70
2024/01/18 02:32:59;;;;;;;11.75;6.10;;;-2.70;99.90;;;;;;5013084;28;20063;-71
2024/01/18 02:35:24;;;;;;;10.57;5.35;;;-2.70;99.90;;;;;;5030901;28;20065;-70
2024/01/18 02:37:50;;;;;;;13.15;5.90;;;-2.70;99.90;;;;;;5047875;28;20091;-71
2024/01/18 02:40:16;;;;;;;16.42;7.20;;;-2.80;99.90;;;;;;5019354;28;20646;-70
2024/01/18 02:42:42;;;;;;;14.85;5.78;;;-2.80;99.90;;;;;;5046054;28;20033;-70
2024/01/18 02:45:08;;;;;;;13.70;5.80;;;-2.80;99.90;;;;;;5047533;28;20068;-70
2024/01/18 02:47:35;;;;;;;10.75;5.53;;;-2.70;99.90;;;;;;5020661;28;20057;-70
2024/01/18 02:50:01;;;;;;;16.55;5.20;;;-2.80;99.90;;;;;;5038955;28;20107;-70
2024/01/18 02:52:26;;;;;;;11.23;5.80;;;-2.80;99.90;;;;;;5030730;28;20049;-70
2024/01/18 02:54:52;;;;;;;9.50;4.97;;;-2.80;99.90;;;;;;5028612;28;20045;-71
2024/01/18 02:57:19;;;;;;;9.05;4.97;;;-2.80;99.90;;;;;;5036940;28;20426;-70
2024/01/18 02:59:44;;;;;;;9.63;4.95;;;-2.80;99.90;;;;;;5017966;28;20120;-70
2024/01/18 03:02:10;;;;;;;10.65;5.05;;;-2.90;99.90;;;;;;5029231;28;20127;-71
2024/01/18 03:04:35;;;;;;;12.73;5.28;;;-2.90;99.90;;;;;;5030893;28;20120;-70
2024/01/18 03:07:01;;;;;;;9.15;4.72;;;-2.90;99.90;;;;;;5036358;28;20049;-71
2024/01/18 03:09:27;;;;;;;13.40;5.38;;;-3.00;99.90;;;;;;5030440;28;20107;-70
2024/01/18 03:11:53;;;;;;;10.85;4.63;;;-3.00;99.90;;;;;;5035658;28;20107;-70
2024/01/18 03:14:20;;;;;;;11.95;4.45;;;-3.00;99.90;;;;;;5031685;28;20041;-71
2024/01/18 03:16:46;;;;;;;12.02;4.85;;;-3.00;99.90;;;;;;5037800;28;20044;-71
2024/01/18 03:19:12;;;;;;;9.10;4.70;;;-3.00;99.90;;;;;;5022469;28;20032;-72
2024/01/18 03:21:38;;;;;;;9.80;4.55;;;-3.00;99.90;;;;;;5036776;28;20037;-71
2024/01/18 03:24:05;;;;;;;7.35;4.38;;;-3.00;99.90;;;;;;5032022;28;20116;-70
2024/01/18 03:26:31;;;;;;;6.40;3.67;;;-3.00;99.90;;;;;;5039836;28;20484;-71
2024/01/18 03:28:57;;;;;;;5.68;3.28;;;-3.00;99.90;;;;;;5030775;28;20385;-71
2024/01/18 03:31:23;;;;;;;6.50;3.75;;;-2.90;99.90;;;;;;5024593;28;20060;-70
2024/01/18 03:33:48;;;;;;;7.10;3.78;;;-3.00;99.90;;;;;;5024411;28;20049;-70
2024/01/18 03:36:14;;;;;;;10.13;4.70;;;-2.90;99.90;;;;;;5033221;28;20036;-71
2024/01/18 03:38:40;;;;;;;16.10;4.97;;;-2.80;99.90;;;;;;5032928;28;20037;-71
2024/01/18 03:41:05;;;;;;;8.88;4.93;;;-2.80;99.90;;;;;;5047542;28;20045;-71
2024/01/18 03:43:31;;;;;;;8.57;4.50;;;-2.80;99.90;;;;;;5032214;28;20044;-71
2024/01/18 03:45:56;;;;;;;7.00;3.83;;;-2.70;99.90;;;;;;5026265;28;20049;-71
2024/01/18 03:48:22;;;;;;;10.25;4.28;;;-2.70;99.90;;;;;;5049870;28;20082;-71
2024/01/18 03:50:48;;;;;;;9.43;4.55;;;-2.70;99.90;;;;;;5032021;28;20123;-71
2024/01/18 03:53:13;;;;;;;8.57;4.03;;;-2.70;99.90;;;;;;5044393;28;20037;-71
2024/01/18 03:55:39;;;;;;;8.50;4.05;;;-2.70;99.90;;;;;;5028898;28;20155;-71
2024/01/18 03:58:04;;;;;;;8.55;3.83;;;-2.80;99.90;;;;;;5038101;28;20553;-71
2024/01/18 04:00:30;;;;;;;6.80;3.55;;;-2.80;99.90;;;;;;5031941;28;20075;-71
2024/01/18 04:02:56;;;;;;;6.55;3.25;;;-2.80;99.90;;;;;;5033549;28;20033;-71
2024/01/18 04:05:21;;;;;;;6.03;3.15;;;-2.80;99.90;;;;;;5037978;28;20126;-71
2024/01/18 04:07:47;;;;;;;3.97;2.75;;;-2.90;99.90;;;;;;5046136;28;20072;-71
2024/01/18 04:10:12;;;;;;;5.82;2.95;;;-2.90;99.90;;;;;;5036110;28;20083;-71
2024/01/18 04:12:38;;;;;;;6.00;2.53;;;-2.90;99.90;;;;;;5031893;28;20381;-72
2024/01/18 04:15:05;;;;;;;6.28;3.33;;;-2.90;99.90;;;;;;5035799;28;20469;-72
2024/01/18 04:17:31;;;;;;;6.60;2.97;;;-3.00;99.90;;;;;;5037546;28;20076;-71
2024/01/18 04:19:57;;;;;;;8.13;3.17;;;-3.00;99.90;;;;;;5033859;28;20507;-71
2024/01/18 04:22:23;;;;;;;8.77;3.58;;;-3.00;99.90;;;;;;5030760;28;20038;-71
2024/01/18 04:24:49;;;;;;;7.10;2.70;;;-3.00;99.90;;;;;;5031618;28;20480;-70
2024/01/18 04:27:14;;;;;;;4.72;2.38;;;-3.00;99.90;;;;;;5025416;28;20061;-72
2024/01/18 04:29:41;;;;;;;5.97;2.20;;;-2.90;99.90;;;;;;5039473;28;20429;-71
2024/01/18 04:32:07;;;;;;;4.55;2.08;;;-2.90;99.90;;;;;;5033782;28;20054;-71
2024/01/18 04:34:33;;;;;;;7.88;2.85;;;-2.80;99.90;;;;;;5031119;28;20061;-71
2024/01/18 04:36:59;;;;;;;6.10;2.00;;;-2.80;99.90;;;;;;5023678;28;20381;-71
2024/01/18 04:39:24;;;;;;;3.92;2.25;;;-2.70;99.90;;;;;;5034772;28;20068;-71
2024/01/18 04:41:50;;;;;;;2.58;1.50;;;-2.70;99.90;;;;;;5022011;28;20048;-71
2024/01/18 04:44:16;;;;;;;4.57;1.73;;;-2.70;99.90;;;;;;5050251;28;20037;-71
2024/01/18 04:46:42;;;;;;;4.50;1.45;;;-2.60;99.90;;;;;;5032448;28;20037;-71
2024/01/18 04:49:07;;;;;;;3.83;1.42;;;-2.60;99.90;;;;;;5024765;28;20032;-71
2024/01/18 04:51:33;;;;;;;4.20;1.25;;;-2.50;99.90;;;;;;5026005;28;20041;-70
2024/01/18 04:53:59;;;;;;;3.25;1.20;;;-2.50;99.90;;;;;;5032471;28;20072;-70
2024/01/18 04:56:26;;;;;;;3.28;1.35;;;-2.40;99.90;;;;;;5026714;28;20099;-71
2024/01/18 04:58:52;;;;;;;3.00;1.55;;;-2.40;99.90;;;;;;5015205;28;20037;-71
2024/01/18 05:01:18;;;;;;;1.73;1.30;;;-2.40;99.90;;;;;;5012377;28;20051;-71
2024/01/18 05:03:45;;;;;;;3.00;1.00;;;-2.40;99.90;;;;;;5038386;28;20662;-70
2024/01/18 05:06:11;;;;;;;3.63;1.60;;;-2.40;99.90;;;;;;5036326;28;20777;-70
2024/01/18 05:08:36;;;;;;;3.88;1.20;;;-2.40;99.90;;;;;;5038049;28;20033;-70
2024/01/18 05:11:02;;;;;;;2.80;1.20;;;-2.30;99.90;;;;;;5036249;28;20025;-71
2024/01/18 05:13:27;;;;;;;4.88;1.30;;;-2.30;99.90;;;;;;5035608;28;20120;-71
2024/01/18 05:15:53;;;;;;;6.15;1.20;;;-2.30;99.90;;;;;;5014650;28;20041;-71
2024/01/18 05:18:19;;;;;;;4.68;1.33;;;-2.30;99.90;;;;;;5031561;28;20080;-71
2024/01/18 05:20:45;;;;;;;2.78;1.15;;;-2.20;99.90;;;;;;5032119;28;20036;-71
2024/01/18 05:23:10;;;;;;;2.33;1.38;;;-2.30;99.90;;;;;;5044726;28;20033;-71
2024/01/18 05:25:36;;;;;;;2.03;1.10;;;-2.40;99.90;;;;;;5031516;28;20128;-70
2024/01/18 05:28:02;;;;;;;2.25;1.10;;;-2.40;99.90;;;;;;5039012;28;20052;-70
2024/01/18 05:30:27;;;;;;;1.73;1.00;;;-2.50;99.90;;;;;;5012697;28;21040;-71
2024/01/18 05:32:54;;;;;;;2.38;1.20;;;-2.50;99.90;;;;;;5018990;28;20055;-71
2024/01/18 05:35:20;;;;;;;1.83;1.00;;;-2.50;99.90;;;;;;5029007;28;20087;-71
2024/01/18 05:37:45;;;;;;;4.75;1.33;;;-2.50;99.90;;;;;;5032546;28;20091;-71
2024/01/18 05:40:11;;;;;;;3.20;1.10;;;-2.60;99.90;;;;;;5018620;28;20029;-71
2024/01/18 05:42:37;;;;;;;2.60;0.93;;;-2.60;99.90;;;;;;5036186;28;20061;-71
2024/01/18 05:45:04;;;;;;;4.85;1.27;;;-2.60;99.90;;;;;;5017732;28;20052;-71
2024/01/18 05:47:30;;;;;;;2.92;1.10;;;-2.60;99.90;;;;;;5044322;28;20044;-71
2024/01/18 05:49:55;;;;;;;4.70;2.42;;;-2.60;99.90;;;;;;5022031;28;20075;-71
2024/01/18 05:52:21;;;;;;;4.93;1.40;;;-2.70;99.90;;;;;;5035448;28;20049;-71
2024/01/18 05:54:46;;;;;;;3.38;1.27;;;-2.60;99.90;;;;;;5028465;28;20045;-71
2024/01/18 05:57:12;;;;;;;4.68;1.52;;;-2.60;99.90;;;;;;5011635;28;20409;-71
2024/01/18 05:59:38;;;;;;;6.10;1.60;;;-2.60;99.90;;;;;;5029971;28;20040;-71
2024/01/18 06:02:03;;;;;;;4.20;1.70;;;-2.60;99.90;;;;;;5038416;28;20040;-71
2024/01/18 06:04:30;;;;;;;6.55;1.67;;;-2.70;99.90;;;;;;5021160;28;20083;-71
2024/01/18 06:06:57;;;;;;;4.15;1.40;;;-2.70;99.90;;;;;;5037389;28;20041;-71
2024/01/18 06:09:22;;;;;;;3.78;1.38;;;-2.70;99.90;;;;;;5042564;28;20094;-71
2024/01/18 06:11:48;;;;;;;2.95;1.48;;;-2.80;99.90;;;;;;5032827;28;20037;-71
2024/01/18 06:14:15;;;;;;;4.43;1.50;;;-2.80;99.90;;;;;;5035906;28;20046;-72
2024/01/18 06:16:41;;;;;;;5.20;2.03;;;-2.80;99.90;;;;;;5033417;28;20051;-71
2024/01/18 06:19:07;;;;;;;3.50;1.48;;;-2.90;99.90;;;;;;5051350;28;20512;-71
2024/01/18 06:21:33;;;;;;;4.50;2.10;;;-2.90;99.90;;;;;;5035564;28;20056;-71
2024/01/18 06:23:58;;;;;;;3.70;2.15;;;-2.80;99.90;;;;;;5017795;28;20548;-70
2024/01/18 06:26:24;;;;;;;4.63;1.90;;;-2.80;99.90;;;;;;5026183;28;20975;-71
2024/01/18 06:28:50;;;;;;;3.50;1.70;;;-2.80;99.90;;;;;;5020822;28;20714;-71
2024/01/18 06:31:16;;;;;;;4.82;1.48;;;-2.80;99.90;;;;;;5042750;28;20155;-72
2024/01/18 06:33:42;;;;;;;2.55;1.77;;;-2.80;99.90;;;;;;5043122;28;20123;-71
2024/01/18 06:36:09;;;;;;;4.47;1.77;;;-2.90;99.90;;;;;;5019997;28;20462;-71
2024/01/18 06:38:35;;;;;;;7.60;1.63;;;-2.90;99.90;;;;;;5050961;28;20485;-71
2024/01/18 06:41:01;;;;;;;3.63;1.95;;;-2.90;99.90;;;;;;5038378;28;20122;-71
2024/01/18 06:43:26;;;;;;;2.40;1.50;;;-3.00;99.90;;;;;;5033029;28;20037;-71
2024/01/18 06:45:55;;;;;;;3.35;1.83;;;-3.00;99.90;;;;;;5037834;28;20508;-72
2024/01/18 06:48:24;;;;;;;6.35;1.73;;;-3.00;99.90;;;;;;5057040;28;20127;-71
2024/01/18 06:50:53;;;;;;;2.38;1.13;;;-3.00;99.90;;;;;;5049583;28;20362;-71
2024/01/18 06:53:19;;;;;;;2.50;1.10;;;-3.00;99.90;;;;;;5035880;28;20044;-72
2024/01/18 06:55:45;;;;;;;2.40;1.20;;;-3.00;99.90;;;;;;5031289;28;20543;-70
2024/01/18 06:58:10;;;;;;;2.50;1.00;;;-3.00;99.90;;;;;;5049280;28;20460;-71
2024/01/18 07:00:36;;;;;;;1.77;0.70;;;-3.00;99.90;;;;;;5040885;28;20686;-71
2024/01/18 07:03:02;;;;;;;1.90;0.90;;;-3.00;99.90;;;;;;5040393;28;20029;-71
2024/01/18 07:05:27;;;;;;;3.65;1.02;;;-2.90;99.90;;;;;;5033494;28;20057;-71
2024/01/18 07:07:54;;;;;;;2.90;1.05;;;-2.90;99.90;;;;;;5044093;28;20080;-71
2024/01/18 07:10:20;;;;;;;1.38;0.65;;;-2.90;99.90;;;;;;5032272;28;20481;-71
2024/01/18 07:12:46;;;;;;;4.28;0.70;;;-3.00;99.90;;;;;;5021597;28;20033;-69
2024/01/18 07:15:12;;;;;;;4.72;0.90;;;-3.00;99.90;;;;;;5034131;28;20103;-71
2024/01/18 07:17:38;;;;;;;1.92;1.05;;;-2.90;99.90;;;;;;5034909;28;20449;-72
2024/01/18 07:20:04;;;;;;;2.75;1.08;;;-3.00;99.90;;;;;;5032132;28;20028;-71
2024/01/18 07:22:30;;;;;;;4.72;1.17;;;-3.00;99.90;;;;;;5035952;28;20032;-71
2024/01/18 07:24:56;;;;;;;3.70;0.60;;;-3.00;99.90;;;;;;5038964;28;20595;-71
2024/01/18 07:27:22;;;;;;;2.45;0.95;;;-3.00;99.90;;;;;;5047104;28;20054;-71
2024/01/18 07:29:50;;;;;;;4.22;0.90;;;-3.10;99.90;;;;;;5033341;28;20379;-71
2024/01/18 07:32:16;;;;;;;1.40;0.90;;;-3.10;99.90;;;;;;5016797;28;20049;-72
2024/01/18 07:34:42;;;;;;;1.73;0.80;;;-3.10;99.90;;;;;;5046055;28;20056;-71
2024/01/18 07:37:12;;;;;;;1.73;0.95;;;-3.10;99.90;;;;;;5036740;28;20032;-72
2024/01/18 07:39:38;;;;;;;3.10;1.65;;;-3.00;99.90;;;;;;5040930;28;20032;-72
2024/01/18 07:42:03;;;;;;;3.45;1.02;;;-3.00;99.90;;;;;;5023234;28;20037;-71
2024/01/18 07:44:29;;;;;;;3.15;1.02;;;-3.10;99.90;;;;;;5046215;28;20112;-72
2024/01/18 07:46:55;;;;;;;2.47;1.00;;;-3.10;99.90;;;;;;5027611;28;20135;-72
2024/01/18 07:49:21;;;;;;;3.63;1.15;;;-3.10;99.90;;;;;;5024287;28;20042;-71
2024/01/18 07:51:47;;;;;;;2.80;1.10;;;-3.10;99.90;;;;;;5042911;28;20083;-71
2024/01/18 07:54:13;;;;;;;6.22;1.30;;;-3.10;99.90;;;;;;5041142;28;20037;-72
2024/01/18 07:56:39;;;;;;;1.58;1.05;;;-3.10;99.90;;;;;;5048104;28;20045;-72
2024/01/18 07:59:05;;;;;;;1.83;1.17;;;-3.10;99.90;;;;;;5036984;28;20041;-72
2024/01/18 08:01:30;;;;;;;1.58;1.45;;;-3.10;99.90;;;;;;5038305;28;20037;-72
2024/01/18 08:03:56;;;;;;;4.95;1.10;;;-3.00;99.90;;;;;;5048654;28;20052;-72
2024/01/18 08:06:21;;;;;;;2.17;1.17;;;-3.00;99.90;;;;;;5034319;28;20037;-72
2024/01/18 08:08:47;;;;;;;2.92;1.20;;;-2.90;99.90;;;;;;5019733;28;20438;-71
2024/01/18 08:11:13;;;;;;;3.08;1.42;;;-2.90;99.90;;;;;;5036041;28;20080;-72
2024/01/18 08:13:40;;;;;;;2.88;1.73;;;-2.80;99.90;;;;;;5018103;28;20065;-71
2024/01/18 08:16:07;;;;;;;5.55;1.58;;;-2.80;99.90;;;;;;5035437;28;20037;-71
2024/01/18 08:18:33;;;;;;;5.13;1.88;;;-2.70;99.90;;;;;;5031005;28;20037;-71
2024/01/18 08:20:59;;;;;;;4.22;1.48;;;-2.60;99.90;;;;;;5014238;28;20049;-72
2024/01/18 08:23:25;;;;;;;2.28;1.60;;;-2.50;99.90;;;;;;5015362;28;20143;-71
2024/01/18 08:25:50;;;;;;;3.95;1.80;;;-2.40;99.90;;;;;;5038401;28;20072;-71
2024/01/18 08:28:18;;;;;;;2.88;1.60;;;-2.30;99.90;;;;;;5034898;28;20111;-71
2024/01/18 08:30:47;;;;;;;4.38;1.70;;;-2.20;99.90;;;;;;5013737;28;20053;-71
2024/01/18 08:33:13;;;;;;;4.88;1.60;;;-2.30;99.90;;;;;;5045004;28;20048;-71
2024/01/18 08:35:38;;;;;;;3.72;1.27;;;-2.30;99.90;;;;;;5042738;28;20052;-71
2024/01/18 08:38:04;;;;;;;1.98;1.38;;;-2.30;99.90;;;;;;5023246;28;20037;-71
2024/01/18 08:40:30;;;;;;;2.53;1.50;;;-2.30;99.90;;;;;;5027358;28;20558;-71
2024/01/18 08:42:56;;;;;;;3.63;1.85;;;-2.20;99.90;;;;;;5022224;28;20128;-71
2024/01/18 08:45:26;;;;;;;6.85;2.90;;;-2.20;99.90;;;;;;5027913;28;20396;-70
2024/01/18 08:47:51;;;;;;;6.72;2.97;;;-2.10;99.90;;;;;;5052729;28;20410;-70
2024/01/18 08:50:17;;;;;;;11.07;2.78;;;-2.10;99.90;;;;;;5045434;28;20131;-70
2024/01/18 08:52:43;;;;;;;4.38;2.05;;;-2.00;99.90;;;;;;5042810;28;20059;-70
2024/01/18 08:55:09;;;;;;;4.57;2.13;;;-1.90;99.90;;;;;;5042714;28;20488;-70
2024/01/18 08:57:35;;;;;;;4.15;1.40;;;-1.90;99.90;;;;;;5021978;28;20299;-71
2024/01/18 09:00:01;;;;;;;3.63;1.75;;;-1.90;99.90;;;;;;5035834;28;20351;-71
2024/01/18 09:02:27;;;;;;;3.08;1.50;;;-1.90;99.90;;;;;;5015728;28;20042;-71
2024/01/18 09:04:53;;;;;;;2.38;1.48;;;-1.90;99.90;;;;;;5044793;28;20088;-72
2024/01/18 09:07:18;;;;;;;3.42;1.50;;;-1.90;99.90;;;;;;5030008;28;20041;-70
2024/01/18 09:09:45;;;;;;;3.97;1.88;;;-1.90;99.90;;;;;;5036341;28;20060;-70
2024/01/18 09:12:11;;;;;;;4.30;1.70;;;-1.70;99.90;;;;;;5014381;28;20477;-70
2024/01/18 09:14:37;;;;;;;3.78;1.88;;;-1.70;99.90;;;;;;5018348;28;20099;-69
2024/01/18 09:17:03;;;;;;;6.32;1.95;;;-1.60;99.90;;;;;;5038078;28;20077;-69
2024/01/18 09:19:30;;;;;;;4.63;2.05;;;-1.50;99.90;;;;;;5031705;28;20052;-69
2024/01/18 09:21:57;;;;;;;3.20;1.83;;;-1.50;99.90;;;;;;5045903;28;20045;-69
2024/01/18 09:24:23;;;;;;;3.20;1.90;;;-1.40;99.90;;;;;;5031443;28;20053;-69
2024/01/18 09:26:48;;;;;;;5.97;1.70;;;-1.20;99.90;;;;;;5039654;28;20041;-68
2024/01/18 09:29:14;;;;;;;4.28;1.40;;;-1.20;99.90;;;;;;5039460;28;20033;-68
2024/01/18 09:31:40;;;;;;;2.15;1.50;;;-1.00;99.90;;;;;;5030219;28;20136;-69
2024/01/18 09:34:06;;;;;;;6.38;1.63;;;-0.90;99.90;;;;;;5032332;28;20045;-68
2024/01/18 09:36:32;;;;;;;2.80;1.50;;;-0.90;99.90;;;;;;5024185;28;20055;-68
2024/01/18 09:38:57;;;;;;;2.28;1.40;;;-0.80;99.90;;;;;;5040159;28;20727;-67
2024/01/18 09:41:26;;;;;;;6.68;1.70;;;-0.70;99.90;;;;;;5013498;28;20040;-67
2024/01/18 09:43:57;;;;;;;3.63;1.50;;;-0.60;99.90;;;;;;5014109;28;20362;-68
2024/01/18 09:46:23;;;;;;;3.53;1.23;;;-0.40;99.90;;;;;;5044231;28;20037;-68
2024/01/18 09:48:49;;;;;;;6.15;1.30;;;-0.40;99.90;;;;;;5039876;28;20044;-68
2024/01/18 09:51:16;;;;;;;2.47;1.23;;;-0.30;99.90;;;;;;5037884;28;20133;-67
2024/01/18 09:53:48;;;;;;;2.85;1.17;;;-0.20;99.90;;;;;;5027974;28;20029;-67
2024/01/18 09:56:31;;;;;;;1.83;0.80;;;-0.10;99.90;;;;;;5040366;28;20033;-68
2024/01/18 09:58:58;;;;;;;2.85;1.10;;;0.00;99.90;;;;;;5018248;28;20053;-67
2024/01/18 10:01:24;;;;;;;2.40;0.90;;;0.00;99.90;;;;;;5034183;28;20393;-67
2024/01/18 10:03:50;;;;;;;2.58;1.10;;;0.20;99.90;;;;;;5039592;28;20902;-67
2024/01/18 10:06:17;;;;;;;4.55;1.20;;;0.20;99.90;;;;;;5040360;28;20172;-66
2024/01/18 10:08:44;;;;;;;3.15;1.00;;;0.30;99.90;;;;;;5043418;28;20033;-66
2024/01/18 10:11:10;;;;;;;4.10;1.13;;;0.40;99.90;;;;;;5037502;28;20065;-66
2024/01/18 10:13:52;;;;;;;1.77;1.00;;;0.40;99.90;;;;;;5028996;28;20084;-67
2024/01/18 10:16:28;;;;;;;3.70;1.52;;;0.50;99.90;;;;;;5032606;28;20123;-67
2024/01/18 10:19:02;;;;;;;2.90;1.17;;;0.50;99.90;;;;;;5037086;28;20037;-67
2024/01/18 10:21:29;;;;;;;2.40;1.30;;;0.60;99.90;;;;;;5030401;28;20037;-66
2024/01/18 10:23:55;;;;;;;3.97;1.58;;;0.80;99.90;;;;;;5036139;28;20052;-66
2024/01/18 10:26:24;;;;;;;2.10;1.20;;;0.80;99.90;;;;;;5017716;28;20041;-66
2024/01/18 10:28:50;;;;;;;6.78;1.48;;;0.90;99.90;;;;;;5029460;28;20391;-66
2024/01/18 10:31:16;;;;;;;3.47;1.27;;;0.90;99.90;;;;;;5045809;28;20132;-67
2024/01/18 10:33:41;;;;;;;7.15;2.20;;;0.90;99.90;;;;;;5028040;28;20114;-67
2024/01/18 10:36:08;;;;;;;4.10;1.40;;;0.90;99.90;;;;;;5031034;28;20883;-67
2024/01/18 10:38:34;;;;;;;4.25;1.10;;;0.90;99.90;;;;;;5038927;28;20037;-67
2024/01/18 10:41:01;;;;;;;4.97;1.23;;;1.10;99.90;;;;;;5013319;28;20083;-65
2024/01/18 10:43:31;;;;;;;5.65;1.02;;;1.20;99.90;;;;;;5032388;28;20056;-66
2024/01/18 10:45:57;;;;;;;4.10;1.23;;;1.30;99.90;;;;;;5039274;28;20045;-66
2024/01/18 10:48:24;;;;;;;3.58;1.55;;;1.40;99.90;;;;;;5038944;28;20095;-67
2024/01/18 10:50:52;;;;;;;4.72;1.00;;;1.60;99.90;;;;;;5026613;28;20041;-67
2024/01/18 10:53:20;;;;;;;3.85;0.80;;;1.90;99.90;;;;;;5039648;28;20064;-66
2024/01/18 10:55:45;;;;;;;4.55;1.10;;;2.10;99.90;;;;;;5036021;28;20040;-66
2024/01/18 10:58:11;;;;;;;1.88;0.80;;;2.30;99.90;;;;;;5043641;28;20029;-66
2024/01/18 11:00:37;;;;;;;0.90;0.80;;;2.50;99.90;;;;;;5041099;28;20037;-67
2024/01/18 11:03:03;;;;;;;3.20;0.85;;;2.50;99.90;;;;;;5033507;28;20033;-66
2024/01/18 11:05:30;;;;;;;1.60;0.60;;;2.60;99.90;;;;;;5033005;28;20063;-66
2024/01/18 11:07:56;;;;;;;2.45;0.90;;;2.60;99.90;;;;;;5045497;28;20354;-66
2024/01/18 11:10:23;;;;;;;2.35;0.80;;;2.60;99.90;;;;;;5024809;28;20046;-68
2024/01/18 11:12:49;;;;;;;3.70;0.70;;;2.60;99.90;;;;;;5043420;28;20508;-67
2024/01/18 11:15:16;;;;;;;2.33;0.65;;;2.50;99.90;;;;;;5033383;28;20041;-68
2024/01/18 11:17:51;;;;;;;1.25;0.77;;;2.50;99.90;;;;;;5037069;28;20041;-65
2024/01/18 11:20:18;;;;;;;3.13;0.50;;;2.50;99.90;;;;;;5040996;28;20216;-66
2024/01/18 11:22:45;;;;;;;2.88;0.65;;;2.50;99.90;;;;;;5053113;28;20064;-67
2024/01/18 11:25:17;;;;;;;0.60;0.40;;;2.50;99.90;;;;;;5038661;28;20120;-65
2024/01/18 11:27:43;;;;;;;0.70;0.40;;;2.50;99.90;;;;;;5040144;28;20037;-65
2024/01/18 11:30:34;;;;;;;0.43;0.43;;;2.50;99.90;;;;;;5039096;28;20045;-65
2024/01/18 11:33:06;;;;;;;0.60;0.50;;;2.40;99.90;;;;;;5046245;28;20229;-65
2024/01/18 11:35:33;;;;;;;1.48;0.40;;;2.40;99.90;;;;;;5039089;28;20044;-65
2024/01/18 11:38:20;;;;;;;0.30;0.30;;;2.60;99.90;;;;;;5020896;28;20135;-64
2024/01/18 11:40:49;;;;;;;0.90;0.40;;;2.70;99.90;;;;;;5041291;28;20045;-66
2024/01/18 11:43:15;;;;;;;2.05;0.40;;;2.60;99.90;;;;;;5043791;28;20041;-64
2024/01/18 11:45:44;;;;;;;2.25;0.60;;;2.50;99.90;;;;;;5051289;28;20488;-64
2024/01/18 11:48:11;;;;;;;1.17;0.77;;;2.60;99.90;;;;;;5044285;28;20087;-64
2024/01/18 11:50:37;;;;;;;1.80;0.70;;;2.50;99.90;;;;;;5039415;28;20156;-64
2024/01/18 11:53:03;;;;;;;2.00;0.52;;;2.70;99.90;;;;;;5032917;28;20477;-64
2024/01/18 11:55:34;;;;;;;1.63;0.70;;;3.00;99.90;;;;;;5040955;28;20045;-64
2024/01/18 11:58:01;;;;;;;2.72;0.57;;;3.10;99.90;;;;;;5037150;28;20483;-63
2024/01/18 12:00:28;;;;;;;3.55;0.70;;;3.10;99.90;;;;;;5032395;28;20042;-64
2024/01/18 12:02:55;;;;;;;1.90;1.15;;;2.90;99.90;;;;;;5031354;28;20468;-64
2024/01/18 12:05:21;;;;;;;0.77;0.55;;;2.80;99.90;;;;;;5038783;28;20084;-63
2024/01/18 12:07:46;;;;;;;1.27;0.90;;;2.70;99.90;;;;;;5036085;28;20076;-64
2024/01/18 12:10:12;;;;;;;2.50;0.85;;;2.70;99.90;;;;;;5022331;28;20037;-63
2024/01/18 12:12:41;;;;;;;1.08;0.68;;;2.60;99.90;;;;;;5035931;28;20087;-63
2024/01/18 12:15:08;;;;;;;1.77;0.60;;;2.60;99.90;;;;;;5014985;28;20041;-64
2024/01/18 12:17:33;;;;;;;1.60;0.73;;;2.50;99.90;;;;;;5037347;28;20431;-63
2024/01/18 12:19:59;;;;;;;2.38;0.70;;;2.50;99.90;;;;;;5031244;28;20029;-64
2024/01/18 12:22:26;;;;;;;2.15;0.70;;;2.60;99.90;;;;;;5019593;28;20133;-64
2024/01/18 12:24:52;;;;;;;4.05;0.70;;;3.10;99.90;;;;;;5036530;28;20393;-64
2024/01/18 12:27:17;;;;;;;1.33;0.98;;;3.00;99.90;;;;;;5037328;28;20052;-65
2024/01/18 12:29:44;;;;;;;1.80;0.70;;;2.90;99.90;;;;;;5035838;28;20037;-64
2024/01/18 12:32:10;;;;;;;1.77;0.70;;;2.80;99.90;;;;;;5035420;28;20060;-65
2024/01/18 12:34:36;;;;;;;1.48;0.70;;;2.80;99.90;;;;;;5041239;28;20461;-64
2024/01/18 12:37:03;;;;;;;1.42;0.70;;;2.80;99.90;;;;;;5041938;28;20091;-64
2024/01/18 12:39:33;;;;;;;1.95;0.68;;;2.80;99.90;;;;;;5039916;28;20575;-64
2024/01/18 12:41:59;;;;;;;2.80;0.73;;;2.70;99.90;;;;;;5029825;28;20178;-64